createdAt,value
2018-04-15T00:00:20.978Z,100.00
2018-04-15T00:02:46.864Z,100.00
2018-04-15T00:05:12.670Z,100.00
2018-04-15T00:07:38.449Z,100.00
2018-04-15T00:10:04.263Z,100.00
2018-04-15T00:12:30.046Z,100.00
2018-04-15T00:14:55.811Z,100.00
2018-04-15T00:17:21.617Z,100.00
2018-04-15T00:19:47.404Z,100.00
2018-04-15T00:22:13.203Z,100.00
2018-04-15T00:24:39.009Z,100.00
2018-04-15T00:27:04.848Z,100.00
2018-04-15T00:29:30.625Z,100.00
2018-04-15T00:31:56.425Z,100.00
2018-04-15T00:34:22.217Z,100.00
2018-04-15T00:36:48.011Z,100.00
2018-04-15T00:39:13.821Z,100.00
2018-04-15T00:41:39.602Z,100.00
2018-04-15T00:44:05.408Z,100.00
2018-04-15T00:46:31.189Z,100.00
2018-04-15T00:48:56.978Z,100.00
2018-04-15T00:51:22.806Z,100.00
2018-04-15T00:54:01.016Z,100.00
2018-04-15T00:56:26.808Z,100.00
2018-04-15T00:58:52.605Z,100.00
2018-04-15T01:01:18.387Z,100.00
2018-04-15T01:03:44.210Z,100.00
2018-04-15T01:06:09.989Z,100.00
2018-04-15T01:08:35.786Z,100.00
2018-04-15T01:11:01.606Z,100.00
2018-04-15T01:13:27.390Z,100.00
2018-04-15T01:15:53.197Z,100.00
2018-04-15T01:18:18.988Z,100.00
2018-04-15T01:20:44.789Z,100.00
2018-04-15T01:23:10.586Z,100.00
2018-04-15T01:25:36.390Z,100.00
2018-04-15T01:28:02.186Z,100.00
2018-04-15T01:30:27.989Z,100.00
2018-04-15T01:32:53.777Z,100.00
2018-04-15T01:35:19.578Z,100.00
2018-04-15T01:37:45.369Z,100.00
2018-04-15T01:40:11.162Z,100.00
2018-04-15T01:42:36.948Z,100.00
2018-04-15T01:45:02.757Z,100.00
2018-04-15T01:47:28.535Z,100.00
2018-04-15T01:49:54.408Z,100.00
2018-04-15T01:52:20.179Z,100.00
2018-04-15T01:54:45.965Z,100.00
2018-04-15T01:57:11.754Z,100.00
2018-04-15T01:59:37.540Z,100.00
2018-04-15T02:02:03.349Z,100.00
2018-04-15T02:04:29.396Z,100.00
2018-04-15T02:06:55.200Z,100.00
2018-04-15T02:09:20.987Z,100.00
2018-04-15T02:11:46.786Z,100.00
2018-04-15T02:14:12.572Z,100.00
2018-04-15T02:16:38.371Z,100.00
2018-04-15T02:19:04.169Z,100.00
2018-04-15T02:21:30.101Z,100.00
2018-04-15T02:23:55.898Z,100.00
2018-04-15T02:26:21.686Z,100.00
2018-04-15T02:28:47.484Z,100.00
2018-04-15T02:31:13.275Z,100.00
2018-04-15T02:33:39.066Z,100.00
2018-04-15T02:36:04.921Z,100.00
2018-04-15T02:38:30.718Z,100.00
2018-04-15T02:40:56.500Z,100.00
2018-04-15T02:43:22.286Z,100.00
2018-04-15T02:45:48.089Z,100.00
2018-04-15T02:48:13.884Z,100.00
2018-04-15T02:50:39.699Z,100.00
2018-04-15T02:53:05.503Z,100.00
2018-04-15T02:55:31.320Z,100.00
2018-04-15T02:57:57.115Z,100.00
2018-04-15T03:00:22.916Z,100.00
2018-04-15T03:02:48.718Z,100.00
2018-04-15T03:05:14.510Z,100.00
2018-04-15T03:07:40.336Z,100.00
2018-04-15T03:10:06.145Z,100.00
2018-04-15T03:12:31.940Z,100.00
2018-04-15T03:14:57.744Z,100.00
2018-04-15T03:17:23.533Z,100.00
2018-04-15T03:19:49.314Z,100.00
2018-04-15T03:22:15.114Z,100.00
2018-04-15T03:24:40.893Z,100.00
2018-04-15T03:27:06.677Z,100.00
2018-04-15T03:29:32.742Z,100.00
2018-04-15T03:31:58.521Z,100.00
2018-04-15T03:34:24.310Z,100.00
2018-04-15T03:36:50.129Z,100.00
2018-04-15T03:39:15.921Z,100.00
2018-04-15T03:41:41.706Z,100.00
2018-04-15T03:44:07.490Z,100.00
2018-04-15T03:46:33.282Z,100.00
2018-04-15T03:48:59.110Z,100.00
2018-04-15T03:51:24.894Z,100.00
2018-04-15T03:53:50.686Z,100.00
2018-04-15T03:56:16.475Z,100.00
2018-04-15T03:58:42.266Z,100.00
2018-04-15T04:01:08.163Z,100.00
2018-04-15T04:03:33.953Z,100.00
2018-04-15T04:05:59.724Z,100.00
2018-04-15T04:08:25.764Z,100.00
2018-04-15T04:10:51.549Z,100.00
2018-04-15T04:13:17.349Z,100.00
2018-04-15T04:15:43.168Z,100.00
2018-04-15T04:18:21.360Z,100.00
2018-04-15T04:20:59.551Z,100.00
2018-04-15T04:23:37.917Z,100.00
2018-04-15T04:26:03.742Z,100.00
2018-04-15T04:28:29.527Z,100.00
2018-04-15T04:30:55.315Z,100.00
2018-04-15T04:33:21.941Z,100.00
2018-04-15T04:35:47.714Z,100.00
2018-04-15T04:38:13.519Z,100.00
2018-04-15T04:40:39.293Z,100.00
2018-04-15T04:43:05.070Z,100.00
2018-04-15T04:45:30.876Z,100.00
2018-04-15T04:47:56.686Z,100.00
2018-04-15T04:50:22.482Z,100.00
2018-04-15T04:52:48.594Z,100.00
2018-04-15T04:55:14.380Z,100.00
2018-04-15T04:57:40.151Z,100.00
2018-04-15T05:00:05.965Z,100.00
2018-04-15T05:02:31.860Z,100.00
2018-04-15T05:04:57.644Z,100.00
2018-04-15T05:07:23.438Z,100.00
2018-04-15T05:09:49.221Z,100.00
2018-04-15T05:12:15.015Z,100.00
2018-04-15T05:14:40.839Z,100.00
2018-04-15T05:17:06.629Z,100.00
2018-04-15T05:19:32.454Z,100.00
2018-04-15T05:21:58.247Z,100.00
2018-04-15T05:24:24.087Z,100.00
2018-04-15T05:26:49.869Z,100.00
2018-04-15T05:29:15.681Z,100.00
2018-04-15T05:31:41.496Z,100.00
2018-04-15T05:34:07.308Z,100.00
2018-04-15T05:36:33.138Z,100.00
2018-04-15T05:38:58.954Z,100.00
2018-04-15T05:41:26.060Z,100.00
2018-04-15T05:43:51.852Z,100.00
2018-04-15T05:46:17.641Z,100.00
2018-04-15T05:48:43.446Z,100.00
2018-04-15T05:51:09.225Z,100.00
2018-04-15T05:53:35.032Z,100.00
2018-04-15T05:56:00.838Z,100.00
2018-04-15T05:58:26.626Z,100.00
2018-04-15T06:00:52.542Z,100.00
2018-04-15T06:03:18.425Z,100.00
2018-04-15T06:05:44.226Z,100.00
2018-04-15T06:08:10.015Z,100.00
2018-04-15T06:10:35.826Z,100.00
2018-04-15T06:13:01.600Z,100.00
2018-04-15T06:15:27.389Z,100.00
2018-04-15T06:17:53.214Z,100.00
2018-04-15T06:20:18.996Z,100.00
2018-04-15T06:22:44.783Z,100.00
2018-04-15T06:25:10.585Z,100.00
2018-04-15T06:27:36.381Z,100.00
2018-04-15T06:30:02.231Z,100.00
2018-04-15T06:32:28.167Z,100.00
2018-04-15T06:34:54.025Z,100.00
2018-04-15T06:37:19.815Z,100.00
2018-04-15T06:39:45.637Z,100.00
2018-04-15T06:42:11.513Z,100.00
2018-04-15T06:44:37.297Z,100.00
2018-04-15T06:47:03.159Z,100.00
2018-04-15T06:49:29.693Z,100.00
2018-04-15T06:51:58.083Z,100.00
2018-04-15T06:54:24.800Z,100.00
2018-04-15T06:56:51.561Z,100.00
2018-04-15T06:59:18.360Z,100.00
2018-04-15T07:01:44.575Z,100.00
2018-04-15T07:04:14.052Z,100.00
2018-04-15T07:06:44.261Z,100.00
2018-04-15T07:09:11.124Z,100.00
2018-04-15T07:11:38.335Z,100.00
2018-04-15T07:14:04.187Z,100.00
2018-04-15T07:16:30.106Z,100.00
2018-04-15T07:18:55.875Z,100.00
2018-04-15T07:21:21.708Z,100.00
2018-04-15T07:23:48.188Z,100.00
2018-04-15T07:26:14.674Z,100.00
2018-04-15T07:28:41.561Z,100.00
2018-04-15T07:31:07.452Z,100.00
2018-04-15T07:33:33.796Z,100.00
2018-04-15T07:36:01.271Z,100.00
2018-04-15T07:38:27.865Z,100.00
2018-04-15T07:40:53.666Z,100.00
2018-04-15T07:43:20.473Z,100.00
2018-04-15T07:45:47.523Z,100.00
2018-04-15T07:48:13.318Z,100.00
2018-04-15T07:50:39.745Z,100.00
2018-04-15T07:53:05.538Z,100.00
2018-04-15T07:55:31.503Z,100.00
2018-04-15T07:57:57.891Z,100.00
2018-04-15T08:00:24.752Z,100.00
2018-04-15T08:02:51.715Z,100.00
2018-04-15T08:05:18.528Z,100.00
2018-04-15T08:07:44.371Z,100.00
2018-04-15T08:10:10.217Z,100.00
2018-04-15T08:12:37.024Z,100.00
2018-04-15T08:15:03.859Z,99.47
2018-04-15T08:17:30.266Z,99.49
2018-04-15T08:19:56.110Z,99.54
2018-04-15T08:22:21.962Z,100.00
2018-04-15T08:24:47.796Z,100.00
2018-04-15T08:27:13.624Z,100.00
2018-04-15T08:29:39.425Z,99.30
2018-04-15T08:32:05.226Z,100.00
2018-04-15T08:34:31.018Z,100.00
2018-04-15T08:36:56.800Z,100.00
2018-04-15T08:39:22.613Z,99.89
2018-04-15T08:41:48.397Z,99.54
2018-04-15T08:44:14.210Z,100.00
2018-04-15T08:46:40.013Z,100.00
2018-04-15T08:49:06.070Z,100.00
2018-04-15T08:51:31.856Z,100.00
2018-04-15T08:53:57.668Z,99.89
2018-04-15T08:56:23.470Z,100.00
2018-04-15T08:58:49.273Z,99.44
2018-04-15T09:01:15.084Z,99.28
2018-04-15T09:03:40.890Z,98.76
2018-04-15T09:06:06.853Z,98.47
2018-04-15T09:08:32.661Z,98.08
2018-04-15T09:10:58.448Z,98.72
2018-04-15T09:13:24.239Z,99.29
2018-04-15T09:15:50.041Z,99.94
2018-04-15T09:18:15.869Z,99.99
2018-04-15T09:20:41.646Z,99.98
2018-04-15T09:23:07.454Z,99.54
2018-04-15T09:25:33.248Z,100.00
2018-04-15T09:27:59.046Z,99.51
2018-04-15T09:30:24.876Z,100.00
2018-04-15T09:32:50.702Z,99.44
2018-04-15T09:35:16.494Z,98.64
2018-04-15T09:37:42.281Z,98.38
2018-04-15T09:40:08.098Z,98.89
2018-04-15T09:42:33.963Z,98.80
2018-04-15T09:44:59.757Z,98.71
2018-04-15T09:47:25.557Z,99.57
2018-04-15T09:49:51.349Z,99.63
2018-04-15T09:52:17.133Z,100.00
2018-04-15T09:54:42.933Z,100.00
2018-04-15T09:57:08.729Z,99.81
2018-04-15T09:59:34.535Z,99.21
2018-04-15T10:02:00.342Z,99.32
2018-04-15T10:04:26.125Z,99.77
2018-04-15T10:06:52.117Z,100.00
2018-04-15T10:09:17.930Z,100.00
2018-04-15T10:11:43.710Z,99.74
2018-04-15T10:14:09.548Z,100.00
2018-04-15T10:16:35.348Z,99.78
2018-04-15T10:19:01.133Z,100.00
2018-04-15T10:21:27.059Z,100.00
2018-04-15T10:23:52.858Z,99.84
2018-04-15T10:26:18.649Z,100.00
2018-04-15T10:28:44.464Z,100.00
2018-04-15T10:31:10.261Z,99.82
2018-04-15T10:33:36.062Z,99.66
2018-04-15T10:36:01.851Z,99.47
2018-04-15T10:38:27.638Z,99.18
2018-04-15T10:40:53.426Z,99.33
2018-04-15T10:43:26.316Z,99.64
2018-04-15T10:45:52.119Z,99.40
2018-04-15T10:48:17.902Z,98.92
2018-04-15T10:50:43.909Z,98.45
2018-04-15T10:53:09.713Z,98.46
2018-04-15T10:55:35.505Z,98.70
2018-04-15T10:58:01.287Z,99.09
2018-04-15T11:00:27.080Z,98.35
2018-04-15T11:02:52.888Z,97.37
2018-04-15T11:05:18.673Z,97.28
2018-04-15T11:07:44.474Z,96.33
2018-04-15T11:10:10.277Z,97.91
2018-04-15T11:12:36.067Z,97.66
2018-04-15T11:15:01.888Z,97.62
2018-04-15T11:17:27.695Z,98.22
2018-04-15T11:19:53.490Z,98.65
2018-04-15T11:22:19.313Z,98.94
2018-04-15T11:24:45.664Z,99.48
2018-04-15T11:27:12.183Z,99.55
2018-04-15T11:29:38.005Z,99.56
2018-04-15T11:32:03.822Z,99.21
2018-04-15T11:34:29.627Z,98.88
2018-04-15T11:36:56.121Z,99.13
2018-04-15T11:39:22.077Z,99.16
2018-04-15T11:41:48.078Z,99.22
2018-04-15T11:44:13.901Z,98.72
2018-04-15T11:46:39.746Z,98.85
2018-04-15T11:49:06.264Z,98.64
2018-04-15T11:51:32.156Z,98.59
2018-04-15T11:53:58.155Z,98.49
2018-04-15T11:56:23.990Z,98.49
2018-04-15T11:58:49.793Z,98.87
2018-04-15T12:01:15.639Z,98.17
2018-04-15T12:03:41.507Z,98.12
2018-04-15T12:06:07.313Z,98.07
2018-04-15T12:08:33.135Z,98.21
2018-04-15T12:10:59.308Z,98.39
2018-04-15T12:13:25.124Z,98.92
2018-04-15T12:15:50.994Z,97.93
2018-04-15T12:18:17.489Z,98.27
2018-04-15T12:20:43.431Z,98.23
2018-04-15T12:23:09.351Z,98.63
2018-04-15T12:25:35.286Z,98.62
2018-04-15T12:28:01.098Z,97.87
2018-04-15T12:30:26.917Z,97.95
2018-04-15T12:32:52.740Z,97.97
2018-04-15T12:35:18.567Z,97.97
2018-04-15T12:37:44.374Z,98.28
2018-04-15T12:40:11.620Z,98.21
2018-04-15T12:42:37.450Z,98.29
2018-04-15T12:45:04.561Z,98.28
2018-04-15T12:47:30.400Z,98.71
2018-04-15T12:49:56.203Z,98.68
2018-04-15T12:52:22.019Z,99.23
2018-04-15T12:54:48.044Z,99.60
2018-04-15T12:57:13.893Z,99.40
2018-04-15T12:59:39.723Z,99.48
2018-04-15T13:02:06.609Z,99.45
2018-04-15T13:04:32.412Z,99.72
2018-04-15T13:06:58.197Z,99.77
2018-04-15T13:09:24.577Z,99.62
2018-04-15T13:11:50.942Z,99.32
2018-04-15T13:14:16.782Z,99.42
2018-04-15T13:16:42.798Z,99.35
2018-04-15T13:19:08.602Z,99.30
2018-04-15T13:21:34.427Z,99.40
2018-04-15T13:24:00.250Z,99.22
2018-04-15T13:26:26.440Z,99.17
2018-04-15T13:28:52.902Z,99.38
2018-04-15T13:31:18.701Z,98.62
2018-04-15T13:33:44.525Z,98.06
2018-04-15T13:36:10.325Z,98.32
2018-04-15T13:38:36.151Z,96.47
2018-04-15T13:41:01.971Z,96.38
2018-04-15T13:43:27.916Z,96.86
2018-04-15T13:45:53.831Z,97.13
2018-04-15T13:48:19.654Z,97.11
2018-04-15T13:50:45.443Z,97.25
2018-04-15T13:53:11.387Z,96.45
2018-04-15T13:55:37.265Z,96.22
2018-04-15T13:58:03.093Z,96.96
2018-04-15T14:00:29.037Z,96.51
2018-04-15T14:02:54.949Z,95.23
2018-04-15T14:05:20.750Z,95.34
2018-04-15T14:07:46.566Z,95.27
2018-04-15T14:10:12.404Z,95.14
2018-04-15T14:12:39.318Z,94.51
2018-04-15T14:15:05.970Z,95.18
2018-04-15T14:17:31.761Z,95.12
2018-04-15T14:19:57.621Z,94.19
2018-04-15T14:22:24.238Z,94.09
2018-04-15T14:24:50.411Z,93.94
2018-04-15T14:27:16.381Z,94.76
2018-04-15T14:29:42.245Z,95.77
2018-04-15T14:32:08.112Z,95.22
2018-04-15T14:34:34.385Z,95.49
2018-04-15T14:37:02.176Z,94.76
2018-04-15T14:39:28.200Z,95.18
2018-04-15T14:41:54.051Z,94.97
2018-04-15T14:44:20.023Z,95.15
2018-04-15T14:46:45.861Z,94.76
2018-04-15T14:49:11.675Z,94.84
2018-04-15T14:51:38.001Z,95.42
2018-04-15T14:54:03.875Z,95.05
2018-04-15T14:56:29.673Z,95.30
2018-04-15T14:58:55.466Z,95.58
2018-04-15T15:01:21.282Z,95.53
2018-04-15T15:03:47.098Z,95.30
2018-04-15T15:06:12.901Z,94.92
2018-04-15T15:08:38.818Z,94.68
2018-04-15T15:11:04.696Z,94.86
2018-04-15T15:13:30.533Z,94.85
2018-04-15T15:15:57.578Z,95.55
2018-04-15T15:18:24.316Z,94.62
2018-04-15T15:20:50.137Z,95.63
2018-04-15T15:23:15.983Z,96.71
2018-04-15T15:25:41.824Z,97.02
2018-04-15T15:28:07.776Z,97.00
2018-04-15T15:30:33.573Z,97.06
2018-04-15T15:32:59.377Z,96.60
2018-04-15T15:35:25.508Z,96.77
2018-04-15T15:37:51.347Z,95.96
2018-04-15T15:40:17.236Z,95.72
2018-04-15T15:42:43.509Z,95.82
2018-04-15T15:45:09.342Z,95.14
2018-04-15T15:47:35.218Z,95.62
2018-04-15T15:50:01.343Z,95.09
2018-04-15T15:52:27.154Z,95.81
2018-04-15T15:54:52.921Z,95.84
2018-04-15T15:57:19.035Z,95.96
2018-04-15T15:59:44.857Z,95.62
2018-04-15T16:02:10.633Z,96.37
2018-04-15T16:04:36.460Z,96.46
2018-04-15T16:07:02.274Z,96.86
2018-04-15T16:09:28.372Z,95.99
2018-04-15T16:11:54.480Z,95.76
2018-04-15T16:14:20.525Z,96.03
2018-04-15T16:16:46.488Z,95.96
2018-04-15T16:19:12.350Z,96.38
2018-04-15T16:21:38.161Z,96.36
2018-04-15T16:24:03.997Z,96.30
2018-04-15T16:26:29.818Z,96.59
2018-04-15T16:28:55.720Z,96.34
2018-04-15T16:31:21.521Z,96.69
2018-04-15T16:33:47.341Z,95.37
2018-04-15T16:36:13.136Z,95.01
2018-04-15T16:38:39.259Z,94.72
2018-04-15T16:41:05.293Z,94.52
2018-04-15T16:43:31.281Z,93.44
2018-04-15T16:45:57.068Z,93.93
2018-04-15T16:48:22.947Z,93.75
2018-04-15T16:50:48.806Z,92.59
2018-04-15T16:53:14.554Z,93.89
2018-04-15T16:55:40.382Z,94.59
2018-04-15T16:58:06.845Z,94.80
2018-04-15T17:00:32.724Z,95.27
2018-04-15T17:02:58.781Z,95.85
2018-04-15T17:05:24.616Z,95.69
2018-04-15T17:07:50.426Z,95.55
2018-04-15T17:10:16.274Z,95.86
2018-04-15T17:12:42.668Z,95.97
2018-04-15T17:15:08.557Z,95.77
2018-04-15T17:17:34.378Z,95.82
2018-04-15T17:20:00.193Z,96.02
2018-04-15T17:22:26.015Z,96.28
2018-04-15T17:24:51.819Z,95.86
2018-04-15T17:27:17.688Z,95.48
2018-04-15T17:29:43.722Z,95.02
2018-04-15T17:32:09.647Z,94.86
2018-04-15T17:34:36.079Z,94.65
2018-04-15T17:37:03.519Z,95.42
2018-04-15T17:39:29.779Z,95.72
2018-04-15T17:41:55.653Z,95.91
2018-04-15T17:44:22.065Z,95.93
2018-04-15T17:46:48.879Z,95.95
2018-04-15T17:49:15.105Z,96.09
2018-04-15T17:51:40.923Z,95.41
2018-04-15T17:54:06.742Z,95.91
2018-04-15T17:56:33.043Z,96.03
2018-04-15T17:58:59.811Z,96.20
2018-04-15T18:01:25.630Z,96.22
2018-04-15T18:03:52.292Z,96.17
2018-04-15T18:06:18.116Z,96.27
2018-04-15T18:08:43.925Z,96.45
2018-04-15T18:11:09.740Z,96.32
2018-04-15T18:13:35.929Z,96.27
2018-04-15T18:16:01.786Z,96.15
2018-04-15T18:18:27.565Z,95.97
2018-04-15T18:20:53.692Z,96.65
2018-04-15T18:23:19.814Z,96.67
2018-04-15T18:25:45.697Z,96.58
2018-04-15T18:28:11.577Z,96.46
2018-04-15T18:30:37.993Z,96.27
2018-04-15T18:33:03.807Z,96.09
2018-04-15T18:35:29.625Z,96.38
2018-04-15T18:37:55.441Z,96.67
2018-04-15T18:40:21.236Z,96.70
2018-04-15T18:42:47.280Z,96.88
2018-04-15T18:45:13.373Z,97.01
2018-04-15T18:47:39.217Z,97.19
2018-04-15T18:50:05.100Z,96.89
2018-04-15T18:52:31.618Z,96.66
2018-04-15T18:54:57.506Z,96.69
2018-04-15T18:57:23.389Z,96.77
2018-04-15T18:59:49.206Z,96.35
2018-04-15T19:02:15.870Z,95.98
2018-04-15T19:04:41.678Z,96.10
2018-04-15T19:07:07.487Z,96.32
2018-04-15T19:09:33.462Z,96.72
2018-04-15T19:11:59.398Z,96.32
2018-04-15T19:14:25.211Z,96.35
2018-04-15T19:16:51.212Z,96.30
2018-04-15T19:19:17.040Z,96.14
2018-04-15T19:21:42.854Z,96.28
2018-04-15T19:24:08.871Z,96.17
2018-04-15T19:26:35.845Z,96.11
2018-04-15T19:29:03.238Z,96.05
2018-04-15T19:31:29.721Z,96.12
2018-04-15T19:33:55.558Z,96.17
2018-04-15T19:36:21.354Z,96.00
2018-04-15T19:38:47.181Z,96.35
2018-04-15T19:41:12.986Z,95.96
2018-04-15T19:43:38.836Z,96.02
2018-04-15T19:46:04.641Z,96.17
2018-04-15T19:48:30.473Z,96.33
2018-04-15T19:50:56.339Z,96.41
2018-04-15T19:53:22.323Z,96.26
2018-04-15T19:55:48.199Z,96.56
2018-04-15T19:58:14.025Z,96.74
2018-04-15T20:00:39.886Z,97.05
2018-04-15T20:03:05.724Z,95.62
2018-04-15T20:05:31.552Z,95.74
2018-04-15T20:07:57.393Z,96.40
2018-04-15T20:10:24.986Z,94.74
2018-04-15T20:12:51.316Z,95.82
2018-04-15T20:15:17.161Z,97.12
2018-04-15T20:17:43.070Z,97.68
2018-04-15T20:20:10.891Z,97.32
2018-04-15T20:22:37.676Z,97.12
2018-04-15T20:25:03.494Z,97.74
2018-04-15T20:27:30.780Z,97.77
2018-04-15T20:29:57.091Z,97.88
2018-04-15T20:32:22.928Z,98.50
2018-04-15T20:34:48.775Z,98.24
2018-04-15T20:37:14.585Z,98.37
2018-04-15T20:39:40.995Z,98.84
2018-04-15T20:42:07.507Z,99.10
2018-04-15T20:44:34.233Z,98.84
2018-04-15T20:47:00.059Z,98.93
2018-04-15T20:49:25.893Z,98.81
2018-04-15T20:51:51.694Z,98.66
2018-04-15T20:54:17.599Z,99.15
2018-04-15T20:56:43.618Z,99.74
2018-04-15T20:59:09.501Z,100.00
2018-04-15T21:01:35.306Z,100.00
2018-04-15T21:04:01.674Z,100.00
2018-04-15T21:06:27.514Z,100.00
2018-04-15T21:08:53.324Z,100.00
2018-04-15T21:11:19.159Z,100.00
2018-04-15T21:13:45.503Z,100.00
2018-04-15T21:16:11.370Z,100.00
2018-04-15T21:18:38.325Z,100.00
2018-04-15T21:21:04.829Z,100.00
2018-04-15T21:23:30.659Z,100.00
2018-04-15T21:25:56.563Z,100.00
2018-04-15T21:28:22.387Z,100.00
2018-04-15T21:30:48.236Z,100.00
2018-04-15T21:33:14.099Z,100.00
2018-04-15T21:35:39.907Z,100.00
2018-04-15T21:38:05.915Z,99.97
2018-04-15T21:40:31.748Z,100.00
2018-04-15T21:42:57.565Z,100.00
2018-04-15T21:45:24.401Z,100.00
2018-04-15T21:47:50.222Z,100.00
2018-04-15T21:50:16.075Z,100.00
2018-04-15T21:52:42.189Z,100.00
2018-04-15T21:55:08.007Z,100.00
2018-04-15T21:57:33.828Z,100.00
2018-04-15T21:59:59.680Z,100.00
2018-04-15T22:02:26.379Z,100.00
2018-04-15T22:04:52.218Z,100.00
2018-04-15T22:07:18.100Z,100.00
2018-04-15T22:09:43.905Z,100.00
2018-04-15T22:12:13.575Z,100.00
2018-04-15T22:14:39.842Z,100.00
2018-04-15T22:17:05.633Z,100.00
2018-04-15T22:19:31.545Z,100.00
2018-04-15T22:21:57.404Z,100.00
2018-04-15T22:24:23.243Z,100.00
2018-04-15T22:26:49.068Z,100.00
2018-04-15T22:29:14.906Z,100.00
2018-04-15T22:31:40.726Z,100.00
2018-04-15T22:34:06.612Z,99.17
2018-04-15T22:36:32.437Z,98.65
2018-04-15T22:38:58.343Z,98.63
2018-04-15T22:41:24.175Z,99.25
2018-04-15T22:43:50.014Z,98.58
2018-04-15T22:46:15.837Z,98.62
2018-04-15T22:48:44.447Z,98.93
2018-04-15T22:51:10.502Z,99.42
2018-04-15T22:53:36.367Z,98.56
2018-04-15T22:56:08.596Z,98.67
2018-04-15T22:58:40.677Z,98.26
2018-04-15T23:01:06.679Z,100.00
2018-04-15T23:03:32.625Z,98.09
2018-04-15T23:05:58.424Z,97.99
2018-04-15T23:08:24.247Z,98.90
2018-04-15T23:10:50.124Z,99.22
2018-04-15T23:13:15.974Z,99.47
2018-04-15T23:15:41.817Z,98.42
2018-04-15T23:18:07.681Z,98.40
2018-04-15T23:20:33.542Z,98.59
2018-04-15T23:22:59.361Z,99.38
2018-04-15T23:25:25.179Z,99.15
2018-04-15T23:27:50.990Z,98.16
2018-04-15T23:30:16.785Z,98.42
2018-04-15T23:32:42.582Z,97.87
2018-04-15T23:35:08.379Z,98.25
2018-04-15T23:37:34.237Z,98.55
2018-04-15T23:40:00.045Z,99.07
2018-04-15T23:42:25.843Z,97.91
2018-04-15T23:44:51.641Z,99.35
2018-04-15T23:47:17.452Z,98.64
2018-04-15T23:49:43.254Z,97.81
2018-04-15T23:52:09.048Z,96.45
2018-04-15T23:54:34.857Z,97.59
2018-04-15T23:57:00.639Z,98.68
2018-04-15T23:59:26.443Z,99.34
